createdAt,value
2023-02-19T00:01:31.591Z,98214.10
2023-02-19T00:04:22.284Z,98216.43
2023-02-19T00:07:04.240Z,98220.05
2023-02-19T00:09:45.661Z,98212.39
2023-02-19T00:12:33.248Z,98216.23
2023-02-19T00:15:07.903Z,98208.48
2023-02-19T00:17:56.245Z,98205.05
2023-02-19T00:20:37.236Z,98202.67
2023-02-19T00:23:18.419Z,98200.83
2023-02-19T00:26:06.017Z,98202.73
2023-02-19T00:28:54.394Z,98199.48
2023-02-19T00:31:43.330Z,98200.56
2023-02-19T00:34:19.378Z,98197.78
2023-02-19T00:37:07.235Z,98192.81
2023-02-19T00:39:41.370Z,98205.27
2023-02-19T00:42:29.258Z,98205.52
2023-02-19T00:45:04.427Z,98206.75
2023-02-19T00:47:52.240Z,98204.30
2023-02-19T00:50:26.371Z,98198.45
2023-02-19T00:53:14.236Z,98193.44
2023-02-19T00:55:55.253Z,98194.93
2023-02-19T00:58:50.230Z,98199.49
2023-02-19T01:01:38.288Z,98199.61
2023-02-19T01:04:13.547Z,98195.52
2023-02-19T01:07:01.238Z,98193.98
2023-02-19T01:09:35.376Z,98192.69
2023-02-19T01:12:23.238Z,98191.61
2023-02-19T01:14:58.373Z,98189.83
2023-02-19T01:17:46.232Z,98186.06
2023-02-19T01:20:28.228Z,98190.48
2023-02-19T01:23:25.296Z,98182.89
2023-02-19T01:26:15.268Z,98173.63
2023-02-19T01:28:50.382Z,98174.20
2023-02-19T01:31:38.361Z,98173.48
2023-02-19T01:34:13.402Z,98165.71
2023-02-19T01:37:01.431Z,98169.59
2023-02-19T01:39:36.553Z,98173.82
2023-02-19T01:42:24.245Z,98177.56
2023-02-19T01:45:28.408Z,98179.58
2023-02-19T01:48:20.437Z,98182.84
2023-02-19T01:51:08.741Z,98177.84
2023-02-19T01:54:08.241Z,98177.71
2023-02-19T01:56:57.233Z,98182.60
2023-02-19T01:59:39.223Z,98181.92
2023-02-19T02:02:35.227Z,98185.83
2023-02-19T02:05:32.224Z,98182.06
2023-02-19T02:08:27.753Z,98175.35
2023-02-19T02:11:15.233Z,98172.25
2023-02-19T02:13:56.358Z,98173.85
2023-02-19T02:17:15.225Z,98172.33
2023-02-19T02:20:03.241Z,98166.90
2023-02-19T02:22:49.623Z,98172.38
2023-02-19T02:25:56.238Z,98164.50
2023-02-19T02:28:58.199Z,98161.65
2023-02-19T02:31:58.325Z,98162.14
2023-02-19T02:35:10.243Z,98158.52
2023-02-19T02:38:00.235Z,98153.73
2023-02-19T02:40:41.357Z,98149.36
2023-02-19T02:43:22.228Z,98146.90
2023-02-19T02:46:10.247Z,98147.85
2023-02-19T02:49:00.234Z,98145.65
2023-02-19T02:51:47.420Z,98145.75
2023-02-19T02:54:50.231Z,98139.27
2023-02-19T02:57:31.340Z,98138.58
2023-02-19T03:00:13.223Z,98138.34
2023-02-19T03:03:01.425Z,98135.75
2023-02-19T03:05:51.870Z,98131.59
2023-02-19T03:08:46.231Z,98127.92
2023-02-19T03:11:46.241Z,98125.65
2023-02-19T03:14:49.017Z,98128.36
2023-02-19T03:18:03.444Z,98130.02
2023-02-19T03:20:47.371Z,98127.32
2023-02-19T03:23:49.201Z,98123.68
2023-02-19T03:26:30.361Z,98129.20
2023-02-19T03:29:30.249Z,98125.14
2023-02-19T03:32:36.447Z,98127.30
2023-02-19T03:35:28.242Z,98120.89
2023-02-19T03:38:22.363Z,98115.70
2023-02-19T03:41:40.207Z,98121.27
2023-02-19T03:44:32.232Z,98116.09
2023-02-19T03:47:34.229Z,98105.79
2023-02-19T03:50:43.218Z,98098.61
2023-02-19T03:53:45.565Z,98092.75
2023-02-19T03:56:41.194Z,98095.08
2023-02-19T03:59:24.352Z,98090.34
2023-02-19T04:02:26.248Z,98085.57
2023-02-19T04:05:38.215Z,98082.23
2023-02-19T04:08:27.212Z,98085.34
2023-02-19T04:11:02.396Z,98083.95
2023-02-19T04:13:55.407Z,98084.89
2023-02-19T04:16:35.572Z,98085.42
2023-02-19T04:19:27.413Z,98086.18
2023-02-19T04:22:16.406Z,98090.33
2023-02-19T04:25:00.415Z,98089.32
2023-02-19T04:27:48.339Z,98085.52
2023-02-19T04:30:29.306Z,98079.14
2023-02-19T04:33:17.212Z,98073.98
2023-02-19T04:35:51.658Z,98076.27
2023-02-19T04:38:39.208Z,98073.24
2023-02-19T04:41:13.840Z,98069.30
2023-02-19T04:44:02.216Z,98060.16
2023-02-19T04:46:36.599Z,98062.61
2023-02-19T04:49:24.215Z,98052.90
2023-02-19T04:51:58.652Z,98050.73
2023-02-19T04:54:46.192Z,98054.35
2023-02-19T04:57:41.209Z,98060.52
2023-02-19T05:00:29.201Z,98057.50
2023-02-19T05:03:04.327Z,98056.23
2023-02-19T05:05:52.193Z,98054.47
2023-02-19T05:08:27.319Z,98055.63
2023-02-19T05:11:17.216Z,98050.27
2023-02-19T05:13:52.414Z,98045.55
2023-02-19T05:16:40.202Z,98036.97
2023-02-19T05:19:20.362Z,98035.48
2023-02-19T05:22:08.221Z,98034.34
2023-02-19T05:24:43.627Z,98031.54
2023-02-19T05:27:32.414Z,98026.35
2023-02-19T05:30:07.610Z,98021.27
2023-02-19T05:32:55.398Z,98012.88
2023-02-19T05:35:31.331Z,98014.52
2023-02-19T05:38:19.243Z,98005.38
2023-02-19T05:41:01.195Z,98001.67
2023-02-19T05:43:58.230Z,98005.19
2023-02-19T05:46:47.325Z,98007.90
2023-02-19T05:49:29.212Z,98009.10
2023-02-19T05:52:24.192Z,98006.56
2023-02-19T05:55:12.200Z,98014.64
2023-02-19T05:57:51.341Z,98009.59
2023-02-19T06:00:40.259Z,98012.83
2023-02-19T06:03:22.389Z,98009.44
2023-02-19T06:06:17.173Z,98009.83
2023-02-19T06:09:05.215Z,98010.04
2023-02-19T06:11:40.328Z,98015.31
2023-02-19T06:14:28.237Z,98017.98
2023-02-19T06:17:03.347Z,98020.36
2023-02-19T06:19:51.203Z,98023.41
2023-02-19T06:22:26.321Z,98021.75
2023-02-19T06:25:19.404Z,98022.11
2023-02-19T06:28:01.781Z,98018.25
2023-02-19T06:30:57.188Z,98011.29
2023-02-19T06:33:53.199Z,98008.20
2023-02-19T06:36:41.390Z,98003.45
2023-02-19T06:39:24.176Z,98007.48
2023-02-19T06:42:19.283Z,98006.89
2023-02-19T06:45:07.181Z,98006.33
2023-02-19T06:47:42.585Z,98003.15
2023-02-19T06:50:30.392Z,98004.15
2023-02-19T06:53:05.357Z,98003.52
2023-02-19T06:56:06.200Z,98016.25
2023-02-19T06:58:42.305Z,98018.77
2023-02-19T07:01:31.195Z,98012.27
2023-02-19T07:04:13.239Z,98009.18
2023-02-19T07:07:01.195Z,98006.34
2023-02-19T07:09:42.520Z,98015.27
2023-02-19T07:12:24.409Z,98004.68
2023-02-19T07:15:05.516Z,98006.57
2023-02-19T07:17:47.171Z,98008.45
2023-02-19T07:20:28.350Z,97998.97
2023-02-19T07:23:09.602Z,97997.42
2023-02-19T07:25:57.200Z,97997.24
2023-02-19T07:28:31.622Z,97996.97
2023-02-19T07:31:19.274Z,97999.10
2023-02-19T07:34:14.170Z,97998.06
2023-02-19T07:37:02.181Z,98002.13
2023-02-19T07:39:37.306Z,97998.73
2023-02-19T07:42:25.188Z,98000.88
2023-02-19T07:45:00.733Z,97997.22
2023-02-19T07:47:49.186Z,98000.59
2023-02-19T07:50:24.298Z,98003.11
2023-02-19T07:53:12.205Z,97995.84
2023-02-19T07:55:47.315Z,97999.34
2023-02-19T07:58:36.189Z,97991.80
2023-02-19T08:01:41.239Z,97992.92
2023-02-19T08:04:22.200Z,97983.50
2023-02-19T08:07:03.362Z,97985.17
2023-02-19T08:09:45.181Z,97992.56
2023-02-19T08:12:44.858Z,97993.03
2023-02-19T08:15:26.196Z,97997.48
2023-02-19T08:18:07.851Z,97996.48
2023-02-19T08:20:50.170Z,97995.23
2023-02-19T08:23:39.167Z,97991.37
2023-02-19T08:26:20.200Z,97988.80
2023-02-19T08:29:01.293Z,97986.48
2023-02-19T08:31:42.369Z,97991.30
2023-02-19T08:34:30.230Z,97995.48
2023-02-19T08:37:25.221Z,97997.66
2023-02-19T08:40:13.187Z,98005.10
2023-02-19T08:42:48.308Z,98009.27
2023-02-19T08:45:36.171Z,98012.85
2023-02-19T08:48:18.177Z,98008.23
2023-02-19T08:51:10.493Z,98010.20
2023-02-19T08:53:53.176Z,98010.44
2023-02-19T08:56:48.187Z,98006.41
2023-02-19T08:59:36.166Z,98003.66
2023-02-19T09:02:13.189Z,98005.48
2023-02-19T09:05:01.335Z,98011.09
2023-02-19T09:07:36.286Z,98014.54
2023-02-19T09:10:24.176Z,98020.09
2023-02-19T09:13:05.163Z,98018.20
2023-02-19T09:16:00.222Z,98015.85
2023-02-19T09:18:48.171Z,98016.89
2023-02-19T09:21:35.345Z,98016.74
2023-02-19T09:24:30.172Z,98017.23
2023-02-19T09:27:23.169Z,98017.67
2023-02-19T09:29:59.024Z,98023.48
2023-02-19T09:32:48.168Z,98027.05
2023-02-19T09:35:23.290Z,98031.67
2023-02-19T09:38:11.382Z,98033.30
2023-02-19T09:40:53.160Z,98034.92
2023-02-19T09:43:48.372Z,98037.82
2023-02-19T09:46:54.164Z,98043.35
2023-02-19T09:49:40.058Z,98037.82
2023-02-19T09:52:45.165Z,98039.69
2023-02-19T09:55:45.473Z,98047.98
2023-02-19T09:58:37.154Z,98048.92
2023-02-19T10:01:13.663Z,98045.48
2023-02-19T10:04:02.180Z,98040.45
2023-02-19T10:06:39.289Z,98044.59
2023-02-19T10:09:33.584Z,98040.02
2023-02-19T10:12:10.158Z,98041.98
2023-02-19T10:15:04.038Z,98045.79
2023-02-19T10:17:39.443Z,98050.23
2023-02-19T10:20:32.170Z,98054.13
2023-02-19T10:23:09.287Z,98059.08
2023-02-19T10:26:06.171Z,98058.47
2023-02-19T10:28:42.365Z,98064.98
2023-02-19T10:31:32.320Z,98071.58
2023-02-19T10:34:32.636Z,98076.45
2023-02-19T10:37:14.809Z,98086.61
2023-02-19T10:40:04.209Z,98092.87
2023-02-19T10:42:53.374Z,98099.31
2023-02-19T10:45:45.411Z,98104.60
2023-02-19T10:49:07.156Z,98110.86
2023-02-19T10:51:48.277Z,98116.23
2023-02-19T10:54:34.376Z,98111.64
2023-02-19T10:57:25.928Z,98107.34
2023-02-19T11:00:11.200Z,98107.11
2023-02-19T11:02:52.467Z,98112.98
2023-02-19T11:05:34.138Z,98117.24
2023-02-19T11:08:30.308Z,98116.88
2023-02-19T11:11:11.472Z,98122.30
2023-02-19T11:13:52.305Z,98124.40
2023-02-19T11:16:46.164Z,98126.65
2023-02-19T11:19:55.409Z,98133.40
2023-02-19T11:22:42.068Z,98135.08
2023-02-19T11:25:32.151Z,98132.95
2023-02-19T11:28:35.842Z,98142.72
2023-02-19T11:31:33.232Z,98148.20
2023-02-19T11:34:30.161Z,98146.83
2023-02-19T11:37:28.139Z,98143.80
2023-02-19T11:40:10.156Z,98147.50
2023-02-19T11:43:29.262Z,98150.64
2023-02-19T11:46:33.345Z,98153.73
2023-02-19T11:49:28.424Z,98155.48
2023-02-19T11:52:54.249Z,98161.82
2023-02-19T11:55:30.029Z,98163.56
2023-02-19T11:58:42.162Z,98159.88
2023-02-19T12:01:24.580Z,98165.66
2023-02-19T12:04:27.186Z,98170.63
2023-02-19T12:07:36.139Z,98168.41
2023-02-19T12:10:29.038Z,98171.17
2023-02-19T12:13:41.336Z,98171.48
2023-02-19T12:16:50.312Z,98175.37
2023-02-19T12:19:53.375Z,98184.05
2023-02-19T12:22:52.165Z,98185.86
2023-02-19T12:25:52.282Z,98188.23
2023-02-19T12:28:55.129Z,98188.06
2023-02-19T12:32:02.298Z,98194.14
2023-02-19T12:34:59.123Z,98194.52
2023-02-19T12:37:45.550Z,98199.02
2023-02-19T12:41:11.128Z,98203.55
2023-02-19T12:43:55.123Z,98210.62
2023-02-19T12:46:47.367Z,98211.06
2023-02-19T12:49:47.071Z,98219.19
2023-02-19T12:52:36.886Z,98220.04
2023-02-19T12:55:32.215Z,98220.05
2023-02-19T12:58:25.293Z,98228.15
2023-02-19T13:01:14.368Z,98233.31
2023-02-19T13:04:00.312Z,98231.73
2023-02-19T13:06:53.179Z,98234.73
2023-02-19T13:09:44.255Z,98240.80
2023-02-19T13:12:32.132Z,98243.39
2023-02-19T13:15:38.124Z,98247.74
2023-02-19T13:18:49.287Z,98253.40
2023-02-19T13:21:53.140Z,98255.04
2023-02-19T13:24:41.763Z,98247.30
2023-02-19T13:27:32.130Z,98254.23
2023-02-19T13:30:35.394Z,98260.20
2023-02-19T13:33:32.134Z,98260.29
2023-02-19T13:36:23.347Z,98265.61
2023-02-19T13:38:59.849Z,98267.75
2023-02-19T13:41:55.118Z,98278.95
2023-02-19T13:44:32.067Z,98282.61
2023-02-19T13:47:59.355Z,98283.88
2023-02-19T13:50:47.565Z,98284.23
2023-02-19T13:53:55.129Z,98293.90
2023-02-19T13:56:43.317Z,98301.35
2023-02-19T13:59:26.174Z,98302.45
2023-02-19T14:02:38.226Z,98302.59
2023-02-19T14:06:06.908Z,98310.00
2023-02-19T14:09:12.370Z,98314.95
2023-02-19T14:12:21.532Z,98316.91
2023-02-19T14:15:51.193Z,98321.79
2023-02-19T14:18:57.145Z,98325.08
2023-02-19T14:21:40.663Z,98333.22
2023-02-19T14:24:30.142Z,98335.94
2023-02-19T14:27:12.466Z,98345.23
2023-02-19T14:29:53.873Z,98351.45
2023-02-19T14:32:35.135Z,98360.99
2023-02-19T14:35:30.346Z,98369.32
2023-02-19T14:38:13.125Z,98381.33
2023-02-19T14:40:56.262Z,98388.11
2023-02-19T14:46:44.307Z,98394.76
2023-02-19T14:49:34.187Z,98398.52
2023-02-19T14:52:26.838Z,98406.39
2023-02-19T14:55:20.145Z,98411.38
2023-02-19T14:57:58.355Z,98410.07
2023-02-19T15:00:49.179Z,98415.64
2023-02-19T15:03:43.163Z,98418.42
2023-02-19T15:06:38.119Z,98424.51
2023-02-19T15:09:27.125Z,98427.20
2023-02-19T15:12:03.021Z,98435.97
2023-02-19T15:14:52.266Z,98441.35
2023-02-19T15:17:43.201Z,98438.52
2023-02-19T15:20:20.337Z,98439.19
2023-02-19T15:23:10.137Z,98451.73
2023-02-19T15:25:45.836Z,98447.65
2023-02-19T15:28:40.116Z,98445.39
2023-02-19T15:31:30.225Z,98445.88
2023-02-19T15:34:24.175Z,98450.98
2023-02-19T15:37:10.113Z,98461.10
2023-02-19T15:40:06.133Z,98462.81
2023-02-19T15:42:54.768Z,98469.77
2023-02-19T15:45:48.119Z,98469.95
2023-02-19T15:48:50.110Z,98472.84
2023-02-19T15:51:41.119Z,98482.20
2023-02-19T15:54:44.550Z,98489.44
2023-02-19T15:57:30.110Z,98494.36
2023-02-19T16:00:27.261Z,98498.96
2023-02-19T16:03:02.191Z,98504.33
2023-02-19T16:05:51.106Z,98507.98
2023-02-19T16:08:35.200Z,98516.98
2023-02-19T16:11:41.095Z,98528.67
2023-02-19T16:14:24.089Z,98528.91
2023-02-19T16:17:18.124Z,98530.82
2023-02-19T16:20:01.735Z,98538.29
2023-02-19T16:22:49.276Z,98540.00
2023-02-19T16:25:51.126Z,98546.02
2023-02-19T16:28:35.434Z,98552.88
2023-02-19T16:31:20.518Z,98560.58
2023-02-19T16:34:32.252Z,98576.31
2023-02-19T16:38:12.252Z,98577.88
2023-02-19T16:41:14.280Z,98586.08
2023-02-19T16:43:50.225Z,98592.89
2023-02-19T16:46:38.114Z,98593.02
2023-02-19T16:49:20.237Z,98589.99
2023-02-19T16:52:04.179Z,98592.59
2023-02-19T16:54:46.067Z,98591.73
2023-02-19T16:57:27.146Z,98594.86
2023-02-19T17:00:19.555Z,98604.77
2023-02-19T17:02:59.270Z,98616.45
2023-02-19T17:05:47.326Z,98625.64
2023-02-19T17:08:44.105Z,98624.48
2023-02-19T17:11:25.255Z,98633.55
2023-02-19T17:14:07.083Z,98634.66
2023-02-19T17:16:55.090Z,98642.84
2023-02-19T17:19:50.097Z,98646.04
2023-02-19T17:22:38.990Z,98650.45
2023-02-19T17:25:14.235Z,98653.35
2023-02-19T17:28:02.099Z,98656.58
2023-02-19T17:30:40.007Z,98663.46
2023-02-19T17:33:38.265Z,98668.79
2023-02-19T17:36:45.089Z,98674.77
2023-02-19T17:39:33.125Z,98675.78
2023-02-19T17:42:08.572Z,98686.38
2023-02-19T17:44:57.265Z,98688.44
2023-02-19T17:47:39.093Z,98695.05
2023-02-19T17:50:38.278Z,98690.95
2023-02-19T17:53:26.098Z,98697.08
2023-02-19T17:56:01.351Z,98698.01
2023-02-19T17:58:49.229Z,98702.52
2023-02-19T18:01:25.407Z,98705.36
2023-02-19T18:04:18.170Z,98711.23
2023-02-19T18:06:54.174Z,98714.16
2023-02-19T18:09:42.093Z,98726.02
2023-02-19T18:12:24.087Z,98730.66
2023-02-19T18:15:09.426Z,98735.39
2023-02-19T18:17:58.112Z,98737.84
2023-02-19T18:20:40.525Z,98739.30
2023-02-19T18:23:30.113Z,98745.58
2023-02-19T18:26:14.078Z,98747.34
2023-02-19T18:28:55.218Z,98755.35
2023-02-19T18:31:39.271Z,98760.39
2023-02-19T18:34:34.095Z,98765.80
2023-02-19T18:37:23.259Z,98776.45
2023-02-19T18:40:01.516Z,98781.83
2023-02-19T18:42:51.305Z,98784.67
2023-02-19T18:45:26.348Z,98789.77
2023-02-19T18:48:14.081Z,98796.52
2023-02-19T18:50:49.470Z,98794.96
2023-02-19T18:53:37.269Z,98800.04
2023-02-19T18:56:13.325Z,98797.25
2023-02-19T18:59:02.102Z,98798.27
2023-02-19T19:01:44.243Z,98800.48
2023-02-19T19:04:25.600Z,98803.59
2023-02-19T19:07:14.386Z,98807.70
2023-02-19T19:09:50.265Z,98803.80
2023-02-19T19:12:38.079Z,98803.34
2023-02-19T19:15:28.486Z,98809.33
2023-02-19T19:18:12.236Z,98818.29
2023-02-19T19:20:53.468Z,98818.69
2023-02-19T19:23:37.260Z,98822.97
2023-02-19T19:26:20.143Z,98827.69
2023-02-19T19:29:01.353Z,98827.52
2023-02-19T19:31:45.364Z,98833.77
2023-02-19T19:34:45.080Z,98837.45
2023-02-19T19:37:41.479Z,98827.55
2023-02-19T19:40:30.062Z,98837.63
2023-02-19T19:43:13.273Z,98848.95
2023-02-19T19:46:09.345Z,98857.88
2023-02-19T19:48:47.264Z,98855.24
2023-02-19T19:51:40.080Z,98855.81
2023-02-19T19:54:15.250Z,98855.15
2023-02-19T19:57:03.083Z,98855.55
2023-02-19T19:59:39.637Z,98849.52
2023-02-19T20:02:30.103Z,98860.30
2023-02-19T20:05:07.130Z,98857.33
2023-02-19T20:07:56.102Z,98865.55
2023-02-19T20:10:31.409Z,98867.73
2023-02-19T20:13:25.565Z,98871.20
2023-02-19T20:16:00.475Z,98872.30
2023-02-19T20:18:49.362Z,98876.81
2023-02-19T20:21:31.166Z,98883.05
2023-02-19T20:24:35.281Z,98887.52
2023-02-19T20:27:25.178Z,98894.60
2023-02-19T20:30:08.353Z,98895.55
2023-02-19T20:33:04.224Z,98892.34
2023-02-19T20:35:55.657Z,98883.34
2023-02-19T20:38:37.304Z,98886.91
2023-02-19T20:41:20.335Z,98886.98
2023-02-19T20:44:09.073Z,98887.63
2023-02-19T20:46:53.200Z,98886.44
2023-02-19T20:49:44.355Z,98886.10
2023-02-19T20:52:26.675Z,98898.34
2023-02-19T20:55:19.015Z,98895.56
2023-02-19T20:58:01.165Z,98898.95
2023-02-19T21:00:49.084Z,98901.92
2023-02-19T21:03:30.050Z,98906.73
2023-02-19T21:06:11.592Z,98908.58
2023-02-19T21:08:53.192Z,98914.95
2023-02-19T21:11:42.195Z,98917.21
2023-02-19T21:14:18.203Z,98925.60
2023-02-19T21:17:07.057Z,98927.09
2023-02-19T21:19:41.666Z,98937.04
2023-02-19T21:22:30.044Z,98940.48
2023-02-19T21:25:13.070Z,98942.80
2023-02-19T21:27:54.246Z,98949.39
2023-02-19T21:30:35.087Z,98950.77
2023-02-19T21:33:30.056Z,98949.23
2023-02-19T21:36:38.054Z,98950.40
2023-02-19T21:39:14.261Z,98958.07
2023-02-19T21:42:02.053Z,98959.56
2023-02-19T21:44:44.179Z,98963.25
2023-02-19T21:47:39.079Z,98967.30
2023-02-19T21:50:35.039Z,98969.73
2023-02-19T21:53:23.038Z,98969.64
2023-02-19T21:55:59.189Z,98971.78
2023-02-19T21:58:47.047Z,98975.81
2023-02-19T22:01:51.313Z,98976.70
2023-02-19T22:04:50.716Z,98973.80
2023-02-19T22:07:41.042Z,98974.73
2023-02-19T22:10:16.931Z,98974.31
2023-02-19T22:13:18.629Z,98980.04
2023-02-19T22:16:09.249Z,98986.60
2023-02-19T22:18:59.062Z,98992.77
2023-02-19T22:21:53.402Z,98988.06
2023-02-19T22:24:42.172Z,98988.95
2023-02-19T22:27:19.315Z,98995.15
2023-02-19T22:30:07.283Z,99002.28
2023-02-19T22:32:56.128Z,99005.98
2023-02-19T22:35:44.221Z,99012.20
2023-02-19T22:38:27.813Z,99016.66
2023-02-19T22:41:10.297Z,99016.81
2023-02-19T22:43:53.303Z,99018.70
2023-02-19T22:46:37.032Z,99016.91
2023-02-19T22:49:18.206Z,99019.64
2023-02-19T22:52:02.070Z,99024.68
2023-02-19T22:54:51.219Z,99031.66
2023-02-19T22:57:26.834Z,99032.53
2023-02-19T23:00:16.360Z,99033.30
2023-02-19T23:02:52.041Z,99037.67
2023-02-19T23:05:41.267Z,99041.91
2023-02-19T23:08:23.163Z,99041.29
2023-02-19T23:11:05.176Z,99045.58
2023-02-19T23:13:49.031Z,99046.77
2023-02-19T23:16:33.065Z,99052.00
2023-02-19T23:19:18.056Z,99054.02
2023-02-19T23:22:07.013Z,99054.00
2023-02-19T23:24:48.237Z,99053.73
2023-02-19T23:27:29.162Z,99049.60
2023-02-19T23:30:11.225Z,99052.45
2023-02-19T23:32:52.143Z,99059.38
2023-02-19T23:35:40.233Z,99057.80
2023-02-19T23:38:21.434Z,99058.72
2023-02-19T23:41:03.216Z,99061.69
2023-02-19T23:43:45.156Z,99061.10
2023-02-19T23:46:27.230Z,99061.30
2023-02-19T23:49:09.209Z,99065.79
2023-02-19T23:51:50.009Z,99068.48
2023-02-19T23:54:32.303Z,99062.39
2023-02-19T23:57:14.024Z,99063.26
2023-02-19T23:59:55.244Z,99061.44
